Time;durP1;ratioP1;P1;durP2;ratioP2;P2;SDS_P1;SDS_P2;PMS_P1;PMS_P2;Temp;Humidity;BMP_temperature;BMP_pressure;BME280_temperature;BME280_humidity;BME280_pressure;Samples;Min_cycle;Max_cycle;Signal;HPM_P1;HPM_P2
2021/01/11 00:02:16;;;;;;;4.82;2.30;;;19.90;21.40;;;;;;5101956;28;20073;-62
2021/01/11 00:04:43;;;;;;;8.35;2.67;;;19.80;21.60;;;;;;5109086;28;20116;-64
2021/01/11 00:07:11;;;;;;;5.25;3.20;;;19.80;21.90;;;;;;5074600;28;20072;-63
2021/01/11 00:09:38;;;;;;;5.35;1.60;;;19.80;22.10;;;;;;5103074;28;20478;-63
2021/01/11 00:12:06;;;;;;;7.22;2.38;;;19.70;22.10;;;;;;5106336;28;20420;-63
2021/01/11 00:14:32;;;;;;;4.72;1.60;;;19.60;22.40;;;;;;5104418;28;20068;-63
2021/01/11 00:16:59;;;;;;;2.05;1.30;;;19.60;22.60;;;;;;5104588;28;20551;-64
2021/01/11 00:19:26;;;;;;;5.22;1.27;;;19.50;22.60;;;;;;5104237;28;20092;-63
2021/01/11 00:21:53;;;;;;;4.72;1.73;;;19.50;22.80;;;;;;5105009;28;20113;-63
2021/01/11 00:24:19;;;;;;;3.90;1.35;;;19.40;23.10;;;;;;5083504;28;20065;-63
2021/01/11 00:26:56;;;;;;;6.13;1.58;;;19.30;23.10;;;;;;5107759;28;20117;-63
2021/01/11 00:29:23;;;;;;;5.85;2.20;;;19.30;23.20;;;;;;5105722;28;20072;-63
2021/01/11 00:31:50;;;;;;;10.02;2.40;;;19.20;23.40;;;;;;5100740;28;20075;-63
2021/01/11 00:34:17;;;;;;;22.90;4.15;;;19.10;23.60;;;;;;5107072;28;20128;-62
2021/01/11 00:36:50;;;;;;;16.55;5.15;;;19.10;23.90;;;;;;5108542;28;20072;-64
2021/01/11 00:39:16;;;;;;;18.50;5.82;;;19.00;23.80;;;;;;5107795;28;20567;-64
2021/01/11 00:41:43;;;;;;;15.38;5.90;;;18.90;24.10;;;;;;5107881;28;20081;-64
2021/01/11 00:44:09;;;;;;;;;;;18.80;24.30;;;;;;5086857;28;20075;-63
2021/01/11 00:46:35;;;;;;;15.65;7.22;;;18.70;24.20;;;;;;5104023;28;20377;-63
2021/01/11 00:49:02;;;;;;;;;;;18.60;24.90;;;;;;5104389;28;20586;-64
2021/01/11 00:51:28;;;;;;;13.13;4.38;;;18.50;24.70;;;;;;5105574;28;20409;-64
2021/01/11 00:53:54;;;;;;;;;;;18.50;24.70;;;;;;5099937;28;20073;-63
2021/01/11 00:56:21;;;;;;;14.20;5.10;;;18.40;24.90;;;;;;5104417;28;20479;-64
2021/01/11 00:58:47;;;;;;;;;;;18.30;24.80;;;;;;5086406;28;20099;-64
2021/01/11 01:01:15;;;;;;;28.17;9.32;;;18.30;24.90;;;;;;5108352;28;20404;-64
2021/01/11 01:03:42;;;;;;;19.17;8.45;;;18.20;24.80;;;;;;5082908;28;20463;-63
2021/01/11 01:06:13;;;;;;;16.15;7.68;;;18.10;25.00;;;;;;5087127;28;20075;-64
2021/01/11 01:08:39;;;;;;;27.70;9.90;;;18.00;25.20;;;;;;5103394;28;20064;-62
2021/01/11 01:11:10;;;;;;;23.15;10.95;;;17.90;25.90;;;;;;5098334;28;20100;-62
2021/01/11 01:13:37;;;;;;;33.30;17.48;;;17.80;26.00;;;;;;5107695;28;20068;-63
2021/01/11 01:16:04;;;;;;;38.92;16.52;;;17.80;26.00;;;;;;5106926;28;20076;-63
2021/01/11 01:18:32;;;;;;;46.17;22.65;;;17.70;27.60;;;;;;5084652;28;20084;-63
2021/01/11 01:20:58;;;;;;;38.95;21.73;;;17.60;26.90;;;;;;5101018;28;20508;-62
2021/01/11 01:23:25;;;;;;;49.55;23.15;;;17.50;26.80;;;;;;5109540;28;20072;-63
2021/01/11 01:25:52;;;;;;;46.53;19.13;;;17.40;27.40;;;;;;5086603;28;20072;-63
2021/01/11 01:28:18;;;;;;;;;;;17.30;27.70;;;;;;5079450;28;20076;-65
2021/01/11 01:30:45;;;;;;;31.85;13.98;;;17.10;28.30;;;;;;5090055;28;20423;-63
2021/01/11 01:33:11;;;;;;;31.00;14.30;;;17.00;28.40;;;;;;5100101;28;20198;-60
2021/01/11 01:35:37;;;;;;;;;;;16.90;29.00;;;;;;5084165;28;20076;-62
2021/01/11 01:38:04;;;;;;;19.13;8.05;;;16.90;29.10;;;;;;5107202;28;20429;-63
2021/01/11 01:40:31;;;;;;;25.35;6.53;;;16.80;29.10;;;;;;5108192;28;20192;-64
2021/01/11 01:42:57;;;;;;;25.30;7.28;;;16.60;29.10;;;;;;5087917;28;20079;-63
2021/01/11 01:45:24;;;;;;;27.27;7.15;;;16.60;29.30;;;;;;5088543;28;20076;-63
2021/01/11 01:47:50;;;;;;;;;;;16.50;29.50;;;;;;5084169;28;20440;-63
2021/01/11 01:50:16;;;;;;;24.55;6.88;;;16.40;30.20;;;;;;5098786;28;19964;-62
2021/01/11 01:52:43;;;;;;;;;;;16.30;30.00;;;;;;5103742;28;20509;-63
2021/01/11 01:55:11;;;;;;;27.30;7.80;;;16.20;30.30;;;;;;5088425;28;19994;-63
2021/01/11 01:57:38;;;;;;;42.22;7.82;;;16.10;30.30;;;;;;5103838;28;20079;-62
2021/01/11 02:00:06;;;;;;;44.38;8.35;;;16.00;30.60;;;;;;5104745;28;20107;-63
2021/01/11 02:02:33;;;;;;;41.55;7.88;;;15.90;30.90;;;;;;5104844;28;20076;-63
2021/01/11 02:04:59;;;;;;;;;;;15.90;31.80;;;;;;5105447;28;20072;-60
2021/01/11 02:07:33;;;;;;;46.38;9.30;;;15.80;31.30;;;;;;5079628;28;19956;-63
2021/01/11 02:10:16;;;;;;;34.30;9.27;;;15.70;31.90;;;;;;5109816;28;20072;-63
2021/01/11 02:13:17;;;;;;;31.63;8.57;;;15.70;32.50;;;;;;5106871;28;20132;-62
2021/01/11 02:15:47;;;;;;;28.50;7.43;;;15.60;32.70;;;;;;5100787;28;20432;-62
2021/01/11 02:18:20;;;;;;;31.45;8.40;;;15.50;33.50;;;;;;5095449;28;20072;-62
2021/01/11 02:21:14;;;;;;;34.38;8.68;;;15.40;32.50;;;;;;5100267;28;20441;-62
2021/01/11 02:24:04;;;;;;;28.10;7.85;;;15.30;32.90;;;;;;5099200;28;20080;-62
2021/01/11 02:26:57;;;;;;;33.50;9.80;;;15.20;33.00;;;;;;5087755;28;20084;-63
2021/01/11 02:29:54;;;;;;;36.22;9.07;;;15.10;33.70;;;;;;5086795;28;20413;-63
2021/01/11 02:32:23;;;;;;;24.50;8.13;;;15.00;33.80;;;;;;5103993;28;20069;-63
2021/01/11 02:34:52;;;;;;;33.38;9.15;;;15.00;34.00;;;;;;5106542;28;20108;-62
2021/01/11 02:37:19;;;;;;;33.78;9.63;;;14.90;34.20;;;;;;5103143;28;20468;-62
2021/01/11 02:39:45;;;;;;;32.28;8.77;;;14.80;34.70;;;;;;5095380;28;20445;-62
2021/01/11 02:42:12;;;;;;;33.60;9.35;;;14.70;35.00;;;;;;5105235;28;20460;-63
2021/01/11 02:44:39;;;;;;;44.53;9.90;;;14.60;34.90;;;;;;5106968;28;20071;-63
2021/01/11 02:47:05;;;;;;;;;;;14.60;35.20;;;;;;5104998;28;20074;-62
2021/01/11 02:49:41;;;;;;;29.65;11.35;;;14.50;35.70;;;;;;5102766;28;19961;-64
2021/01/11 02:52:47;;;;;;;35.80;12.60;;;14.50;35.80;;;;;;5106687;28;20071;-61
2021/01/11 02:55:25;;;;;;;41.20;14.52;;;14.40;36.10;;;;;;5081487;28;20440;-61
2021/01/11 02:58:11;;;;;;;41.30;15.02;;;14.30;35.40;;;;;;5101220;28;20068;-62
2021/01/11 03:00:42;;;;;;;48.50;15.85;;;14.20;35.50;;;;;;5085704;28;20447;-63
2021/01/11 03:03:11;;;;;;;47.40;15.07;;;14.10;35.90;;;;;;5105139;28;20075;-63
2021/01/11 03:05:39;;;;;;;42.22;14.85;;;14.20;36.30;;;;;;5100558;28;20167;-61
2021/01/11 03:08:06;;;;;;;46.72;13.85;;;14.10;36.70;;;;;;5107983;28;20443;-64
2021/01/11 03:10:32;;;;;;;34.95;14.10;;;14.00;37.10;;;;;;5109430;28;20111;-63
2021/01/11 03:12:58;;;;;;;;;;;13.90;37.20;;;;;;5085396;28;20073;-65
2021/01/11 03:15:25;;;;;;;45.10;14.63;;;13.80;37.00;;;;;;5082919;28;19968;-63
2021/01/11 03:17:51;;;;;;;;;;;13.80;37.10;;;;;;5082530;28;20069;-63
2021/01/11 03:20:18;;;;;;;54.42;16.25;;;13.80;37.60;;;;;;5109823;28;19980;-64
2021/01/11 03:22:44;;;;;;;;;;;13.70;37.30;;;;;;5085457;28;20073;-61
2021/01/11 03:25:11;;;;;;;41.78;15.88;;;13.70;37.10;;;;;;5107538;27;19956;-62
2021/01/11 03:27:37;;;;;;;63.53;19.67;;;13.70;37.30;;;;;;5110989;28;20084;-62
2021/01/11 03:30:05;;;;;;;64.30;20.42;;;13.60;38.30;;;;;;5108089;28;20444;-62
2021/01/11 03:32:32;;;;;;;63.47;20.33;;;13.60;38.40;;;;;;5108515;28;20156;-62
2021/01/11 03:34:59;;;;;;;66.50;21.60;;;13.60;38.50;;;;;;5110797;28;20104;-62
2021/01/11 03:37:25;;;;;;;;;;;13.50;38.70;;;;;;5106678;28;20076;-65
2021/01/11 03:39:52;;;;;;;85.63;25.25;;;13.50;38.80;;;;;;5096522;28;20661;-64
2021/01/11 03:42:18;;;;;;;78.82;27.27;;;13.40;39.00;;;;;;5108357;28;20082;-63
2021/01/11 03:44:44;;;;;;;;;;;13.40;39.60;;;;;;5110210;28;20528;-63
2021/01/11 03:47:11;;;;;;;81.13;27.00;;;13.40;39.60;;;;;;5111879;28;20047;-63
2021/01/11 03:49:37;;;;;;;;;;;13.30;40.10;;;;;;5111931;28;20071;-62
2021/01/11 03:52:04;;;;;;;87.38;31.45;;;13.30;40.10;;;;;;5091489;28;19967;-64
2021/01/11 03:54:30;;;;;;;73.68;30.48;;;13.20;39.80;;;;;;5108525;28;20080;-63
2021/01/11 03:56:57;;;;;;;;;;;13.20;40.00;;;;;;5090678;28;20084;-64
2021/01/11 03:59:23;;;;;;;91.63;33.65;;;13.20;40.10;;;;;;5120145;27;20006;-64
2021/01/11 04:01:50;;;;;;;92.93;30.35;;;13.10;40.00;;;;;;5099684;28;20111;-65
2021/01/11 04:04:17;;;;;;;77.50;29.50;;;13.10;39.60;;;;;;5111269;28;20064;-63
2021/01/11 04:06:43;;;;;;;;;;;13.00;40.00;;;;;;5102316;28;20192;-63
2021/01/11 04:09:10;;;;;;;90.47;33.65;;;13.00;40.60;;;;;;5110740;28;20043;-64
2021/01/11 04:11:37;;;;;;;74.65;32.15;;;13.00;41.50;;;;;;5083451;28;20508;-62
2021/01/11 04:14:04;;;;;;;83.03;31.70;;;12.90;41.30;;;;;;5086661;28;20155;-65
2021/01/11 04:16:33;;;;;;;76.70;34.33;;;12.90;41.80;;;;;;5111406;28;20524;-64
2021/01/11 04:18:59;;;;;;;91.97;34.13;;;12.90;41.50;;;;;;5109716;28;20083;-62
2021/01/11 04:21:26;;;;;;;;;;;12.90;41.50;;;;;;5107284;28;20072;-66
2021/01/11 04:23:52;;;;;;;86.82;32.50;;;12.70;41.30;;;;;;5094357;28;19962;-64
2021/01/11 04:26:18;;;;;;;;;;;12.70;41.90;;;;;;5102428;28;20060;-62
2021/01/11 04:28:45;;;;;;;104.68;42.38;;;12.60;41.40;;;;;;5090619;28;19956;-64
2021/01/11 04:31:11;;;;;;;;;;;12.60;41.80;;;;;;5087192;28;20069;-63
2021/01/11 04:33:38;;;;;;;99.93;37.88;;;12.60;41.90;;;;;;5101985;28;20037;-62
2021/01/11 04:36:04;;;;;;;;;;;12.60;42.30;;;;;;5086473;28;20117;-62
2021/01/11 04:38:31;;;;;;;95.10;36.67;;;12.50;42.00;;;;;;5074036;28;19957;-60
2021/01/11 04:41:02;;;;;;;102.30;38.03;;;12.50;42.10;;;;;;5069115;28;20122;-62
2021/01/11 04:43:50;;;;;;;91.35;37.05;;;12.40;41.90;;;;;;5091121;28;20061;-64
2021/01/11 04:46:17;;;;;;;107.88;37.92;;;12.40;41.90;;;;;;5074526;28;20521;-64
2021/01/11 04:48:43;;;;;;;104.30;39.20;;;12.30;42.10;;;;;;5095087;28;20112;-64
2021/01/11 04:51:10;;;;;;;;;;;12.20;42.00;;;;;;5081016;28;20077;-63
2021/01/11 04:53:41;;;;;;;104.30;40.90;;;12.20;42.10;;;;;;5066942;28;20055;-64
2021/01/11 04:56:11;;;;;;;112.40;36.60;;;12.30;42.50;;;;;;5093747;28;20085;-64
2021/01/11 04:58:57;;;;;;;106.72;42.67;;;12.30;42.80;;;;;;5092291;28;20096;-63
2021/01/11 05:01:26;;;;;;;103.10;40.83;;;12.30;43.00;;;;;;5098753;28;20537;-63
2021/01/11 05:03:59;;;;;;;99.28;41.22;;;12.20;42.90;;;;;;5068026;28;20585;-65
2021/01/11 05:06:26;;;;;;;130.60;41.78;;;12.20;42.80;;;;;;5101332;28;20521;-63
2021/01/11 05:08:52;;;;;;;94.55;38.92;;;12.20;43.20;;;;;;5067039;28;20157;-62
2021/01/11 05:11:19;;;;;;;102.28;40.20;;;12.20;43.20;;;;;;5095808;28;20076;-64
2021/01/11 05:13:50;;;;;;;95.53;39.60;;;12.20;43.50;;;;;;5094964;28;20454;-66
2021/01/11 05:16:22;;;;;;;109.60;39.88;;;12.10;43.40;;;;;;5090860;28;20134;-64
2021/01/11 05:18:50;;;;;;;88.75;36.22;;;12.00;43.10;;;;;;5091349;28;20065;-65
2021/01/11 05:21:44;;;;;;;87.28;32.90;;;12.00;42.30;;;;;;5095206;28;20158;-63
2021/01/11 05:24:29;;;;;;;76.28;31.90;;;11.90;42.10;;;;;;5091829;28;20158;-64
2021/01/11 05:27:01;;;;;;;74.32;29.38;;;11.90;42.40;;;;;;5096887;28;20435;-65
2021/01/11 05:29:27;;;;;;;82.90;31.23;;;12.00;42.60;;;;;;5065964;28;20073;-67
2021/01/11 05:32:05;;;;;;;73.72;27.67;;;12.00;42.30;;;;;;5092587;28;20553;-63
2021/01/11 05:34:52;;;;;;;72.03;25.63;;;12.00;42.50;;;;;;5090830;28;20112;-64
2021/01/11 05:37:38;;;;;;;70.70;24.10;;;12.10;42.30;;;;;;5062570;28;20167;-65
2021/01/11 05:40:09;;;;;;;62.07;22.50;;;12.10;43.10;;;;;;5063956;28;20457;-65
2021/01/11 05:42:38;;;;;;;59.80;22.25;;;12.00;43.10;;;;;;5088717;28;20518;-63
2021/01/11 05:45:11;;;;;;;63.40;23.30;;;12.00;43.00;;;;;;5096013;28;20113;-65
2021/01/11 05:47:54;;;;;;;59.25;22.17;;;12.00;42.90;;;;;;5097010;28;20083;-64
2021/01/11 05:50:21;;;;;;;72.97;22.75;;;12.00;42.60;;;;;;5067677;28;20072;-64
2021/01/11 05:52:48;;;;;;;52.60;20.15;;;12.00;43.00;;;;;;5094225;28;20128;-66
2021/01/11 05:55:28;;;;;;;58.42;20.00;;;11.90;42.90;;;;;;5070152;28;20162;-64
2021/01/11 05:57:55;;;;;;;61.13;19.90;;;11.90;42.70;;;;;;5093871;28;20529;-64
2021/01/11 06:00:28;;;;;;;61.42;19.67;;;11.80;42.60;;;;;;5093840;28;20092;-63
2021/01/11 06:02:56;;;;;;;43.03;17.48;;;11.80;42.50;;;;;;5073855;28;20456;-65
2021/01/11 06:05:23;;;;;;;55.53;18.42;;;11.90;42.70;;;;;;5094007;28;20075;-64
2021/01/11 06:07:50;;;;;;;47.78;18.60;;;11.90;42.70;;;;;;5095483;28;20436;-65
2021/01/11 06:10:19;;;;;;;41.75;17.63;;;11.90;42.40;;;;;;5090987;28;20072;-62
2021/01/11 06:12:46;;;;;;;37.72;15.70;;;11.80;42.00;;;;;;5091614;28;20563;-64
2021/01/11 06:15:18;;;;;;;32.95;12.85;;;11.70;42.00;;;;;;5092728;28;20289;-62
2021/01/11 06:17:50;;;;;;;31.08;11.60;;;11.70;41.80;;;;;;5087226;28;20092;-63
2021/01/11 06:20:24;;;;;;;33.67;10.73;;;11.70;41.40;;;;;;5096121;28;20570;-63
2021/01/11 06:22:50;;;;;;;35.63;10.25;;;11.70;41.00;;;;;;5093559;28;20125;-63
2021/01/11 06:25:22;;;;;;;24.33;9.05;;;11.80;40.90;;;;;;5064765;28;20108;-60
2021/01/11 06:28:03;;;;;;;24.27;7.90;;;11.70;40.20;;;;;;5097241;28;20091;-64
2021/01/11 06:30:41;;;;;;;30.63;8.07;;;11.60;39.60;;;;;;5090195;28;20102;-63
2021/01/11 06:33:14;;;;;;;23.25;7.60;;;11.60;39.60;;;;;;5067697;28;20115;-63
2021/01/11 06:35:48;;;;;;;21.60;7.20;;;11.70;39.60;;;;;;5086176;28;20068;-63
2021/01/11 06:38:22;;;;;;;25.60;7.40;;;11.60;39.00;;;;;;5106051;28;20524;-64
2021/01/11 06:41:14;;;;;;;28.85;6.97;;;11.70;39.30;;;;;;5107073;28;20096;-63
2021/01/11 06:43:48;;;;;;;28.50;6.25;;;11.70;38.80;;;;;;5085703;28;20432;-64
2021/01/11 06:46:30;;;;;;;31.77;6.32;;;11.70;38.20;;;;;;5107345;28;20591;-64
2021/01/11 06:49:02;;;;;;;25.65;6.00;;;11.80;38.60;;;;;;5090145;28;20555;-65
2021/01/11 06:51:40;;;;;;;21.90;5.65;;;11.70;38.70;;;;;;5107919;28;20072;-65
2021/01/11 06:54:10;;;;;;;35.30;5.88;;;11.60;38.50;;;;;;5109409;28;20090;-62
2021/01/11 06:56:37;;;;;;;19.77;6.05;;;11.60;38.90;;;;;;5086393;28;20076;-62
2021/01/11 06:59:18;;;;;;;32.83;7.55;;;11.60;39.50;;;;;;5089665;28;20084;-62
2021/01/11 07:01:46;;;;;;;28.27;6.70;;;11.60;40.80;;;;;;5108741;28;20072;-62
2021/01/11 07:04:36;;;;;;;22.17;6.80;;;11.60;40.60;;;;;;5087852;28;20072;-63
2021/01/11 07:07:03;;;;;;;20.08;6.00;;;11.60;40.90;;;;;;5068797;28;20076;-63
2021/01/11 07:09:30;;;;;;;25.42;6.32;;;11.50;39.50;;;;;;5088702;28;20076;-63
2021/01/11 07:12:02;;;;;;;;;;;11.50;38.70;;;;;;5107109;28;20115;-63
2021/01/11 07:14:54;;;;;;;25.73;6.00;;;11.50;38.90;;;;;;5102314;28;19980;-62
2021/01/11 07:17:48;;;;;;;17.23;4.95;;;11.40;39.20;;;;;;5106916;28;20077;-62
2021/01/11 07:20:36;;;;;;;15.85;4.97;;;11.40;39.30;;;;;;5086397;28;20110;-62
2021/01/11 07:23:03;;;;;;;23.90;6.07;;;11.40;39.50;;;;;;5105218;28;20064;-64
2021/01/11 07:25:30;;;;;;;;;;;11.40;39.60;;;;;;5106923;28;20076;-62
2021/01/11 07:27:58;;;;;;;22.53;6.87;;;11.40;39.70;;;;;;5088892;28;20414;-63
2021/01/11 07:30:25;;;;;;;28.05;7.47;;;11.30;39.80;;;;;;5087131;28;20080;-62
2021/01/11 07:32:52;;;;;;;40.70;8.48;;;11.30;40.10;;;;;;5085782;28;20222;-63
2021/01/11 07:35:19;;;;;;;107.18;10.57;;;11.30;39.80;;;;;;5106586;28;20072;-64
2021/01/11 07:37:46;;;;;;;33.80;8.00;;;11.30;40.10;;;;;;5089388;28;20109;-59
2021/01/11 07:40:13;;;;;;;46.08;9.35;;;11.30;40.30;;;;;;5098805;28;20096;-63
2021/01/11 07:42:39;;;;;;;33.97;8.43;;;11.30;40.60;;;;;;5105802;28;20076;-60
2021/01/11 07:45:09;;;;;;;;;;;11.30;41.20;;;;;;5096263;28;20175;-60
2021/01/11 07:47:37;;;;;;;26.42;8.35;;;11.20;41.30;;;;;;5103354;28;20049;-61
2021/01/11 07:50:05;;;;;;;26.63;8.85;;;11.10;41.10;;;;;;5107114;28;20092;-61
2021/01/11 07:52:32;;;;;;;23.38;7.75;;;11.00;41.20;;;;;;5079605;28;20077;-62
2021/01/11 07:55:00;;;;;;;27.30;8.02;;;11.10;40.70;;;;;;5088227;28;20068;-62
2021/01/11 07:57:28;;;;;;;20.83;7.25;;;11.00;40.30;;;;;;5105287;28;20076;-61
2021/01/11 08:00:05;;;;;;;19.40;7.10;;;10.90;40.60;;;;;;5089939;28;20135;-63
2021/01/11 08:02:32;;;;;;;19.55;6.72;;;10.80;40.90;;;;;;5103413;28;20125;-64
2021/01/11 08:04:59;;;;;;;23.40;7.57;;;10.80;41.20;;;;;;5087705;28;20084;-62
2021/01/11 08:07:33;;;;;;;27.20;7.78;;;10.80;41.50;;;;;;5108712;28;20060;-64
2021/01/11 08:10:01;;;;;;;19.65;6.53;;;10.80;41.30;;;;;;5088812;28;20417;-63
2021/01/11 08:12:29;;;;;;;19.02;6.68;;;10.70;41.60;;;;;;5105601;28;20113;-63
2021/01/11 08:15:09;;;;;;;22.40;6.80;;;10.70;41.10;;;;;;5108885;28;20431;-64
2021/01/11 08:17:45;;;;;;;26.05;8.80;;;10.70;41.20;;;;;;5092066;28;20076;-62
2021/01/11 08:20:12;;;;;;;26.48;7.47;;;10.60;41.70;;;;;;5085736;28;20103;-63
2021/01/11 08:22:38;;;;;;;27.30;8.63;;;10.60;41.50;;;;;;5092471;28;20079;-63
2021/01/11 08:25:06;;;;;;;;;;;10.60;41.90;;;;;;5107200;28;20149;-63
2021/01/11 08:27:46;;;;;;;26.50;6.80;;;10.50;41.40;;;;;;5107442;27;19956;-62
2021/01/11 08:30:16;;;;;;;18.45;6.40;;;10.50;41.50;;;;;;5104913;28;20158;-63
2021/01/11 08:32:44;;;;;;;19.48;6.50;;;10.50;41.50;;;;;;5102500;28;20516;-63
2021/01/11 08:35:16;;;;;;;16.48;5.75;;;10.50;41.30;;;;;;5098842;28;20079;-63
2021/01/11 08:37:43;;;;;;;25.67;6.90;;;10.50;41.30;;;;;;5085726;28;20080;-63
2021/01/11 08:40:19;;;;;;;19.25;6.88;;;10.50;41.40;;;;;;5094298;28;20104;-62
2021/01/11 08:42:47;;;;;;;23.45;6.57;;;10.40;41.10;;;;;;5090080;28;20096;-63
2021/01/11 08:45:35;;;;;;;19.42;6.78;;;10.40;41.30;;;;;;5109961;28;20110;-63
2021/01/11 08:48:07;;;;;;;27.15;6.55;;;10.40;41.60;;;;;;5084987;28;20125;-62
2021/01/11 08:50:35;;;;;;;19.95;6.18;;;10.40;41.50;;;;;;5088644;28;20084;-62
2021/01/11 08:53:41;;;;;;;30.50;7.32;;;10.30;41.50;;;;;;5108764;28;20117;-62
2021/01/11 08:56:12;;;;;;;15.68;6.32;;;10.30;41.80;;;;;;5107157;28;20551;-62
2021/01/11 08:58:50;;;;;;;24.73;7.05;;;10.20;41.80;;;;;;5106488;28;20134;-63
2021/01/11 09:01:19;;;;;;;19.58;6.28;;;10.20;41.90;;;;;;5106022;27;20096;-61
2021/01/11 09:03:55;;;;;;;20.50;6.65;;;10.20;41.50;;;;;;5110890;27;20080;-62
2021/01/11 09:06:40;;;;;;;12.55;6.30;;;10.20;41.40;;;;;;5104710;27;20064;-61
2021/01/11 09:09:12;;;;;;;18.58;6.07;;;10.20;40.60;;;;;;5105913;27;20097;-59
2021/01/11 09:11:40;;;;;;;21.13;6.03;;;10.10;40.20;;;;;;5105251;28;20162;-63
2021/01/11 09:14:08;;;;;;;19.38;6.50;;;10.10;40.00;;;;;;5106152;28;20079;-62
2021/01/11 09:16:35;;;;;;;17.23;6.07;;;10.10;39.70;;;;;;5106100;28;20087;-61
2021/01/11 09:19:17;;;;;;;18.33;6.25;;;10.10;40.00;;;;;;5110037;27;20075;-62
2021/01/11 09:21:56;;;;;;;26.77;7.32;;;10.10;40.20;;;;;;5102893;28;20080;-61
2021/01/11 09:24:23;;;;;;;17.85;5.85;;;10.00;40.80;;;;;;5104474;28;20520;-62
2021/01/11 09:26:51;;;;;;;22.92;6.35;;;9.90;40.60;;;;;;5107451;28;20140;-62
2021/01/11 09:29:18;;;;;;;24.20;5.70;;;9.90;40.50;;;;;;5105477;28;20100;-64
2021/01/11 09:31:44;;;;;;;;;;;9.90;39.00;;;;;;5108778;28;20072;-63
2021/01/11 09:34:10;;;;;;;16.88;5.53;;;9.80;39.10;;;;;;5102357;28;20340;-65
2021/01/11 09:36:39;;;;;;;17.67;5.85;;;9.80;39.10;;;;;;5106094;28;20144;-63
2021/01/11 09:39:11;;;;;;;21.20;4.57;;;9.80;40.30;;;;;;5107530;27;20163;-64
2021/01/11 09:41:53;;;;;;;15.07;5.15;;;9.70;40.40;;;;;;5102296;28;20106;-64
2021/01/11 09:44:20;;;;;;;14.65;4.65;;;9.60;40.10;;;;;;5114328;27;20068;-63
2021/01/11 09:46:49;;;;;;;23.55;5.03;;;9.50;40.00;;;;;;5105471;28;20461;-63
2021/01/11 09:49:17;;;;;;;23.17;5.43;;;9.40;40.20;;;;;;5105297;28;20077;-63
2021/01/11 09:51:44;;;;;;;29.33;5.75;;;9.40;40.70;;;;;;5106964;28;20072;-64
2021/01/11 09:54:10;;;;;;;;;;;9.30;40.20;;;;;;5102052;28;20072;-64
2021/01/11 09:56:38;;;;;;;33.30;6.75;;;9.40;40.40;;;;;;5105010;28;20436;-62
2021/01/11 09:59:09;;;;;;;36.67;7.32;;;9.40;40.20;;;;;;5105834;28;20060;-64
2021/01/11 10:01:44;;;;;;;22.20;6.10;;;9.40;40.40;;;;;;5107817;28;20076;-64
2021/01/11 10:04:13;;;;;;;23.42;7.35;;;9.50;40.30;;;;;;5103272;28;20079;-64
2021/01/11 10:06:43;;;;;;;25.45;8.25;;;9.50;40.30;;;;;;5106282;27;20082;-63
2021/01/11 10:09:12;;;;;;;32.95;7.95;;;9.50;40.10;;;;;;5107578;28;20477;-63
2021/01/11 10:11:39;;;;;;;31.63;7.00;;;9.50;39.30;;;;;;5104170;28;20078;-64
2021/01/11 10:14:06;;;;;;;31.80;8.38;;;9.50;39.30;;;;;;5089336;28;20436;-64
2021/01/11 10:16:34;;;;;;;31.15;8.10;;;9.50;39.30;;;;;;5106068;28;20517;-63
2021/01/11 10:19:00;;;;;;;27.95;8.07;;;9.40;38.70;;;;;;5104627;28;20079;-64
2021/01/11 10:21:26;;;;;;;;;;;9.30;38.50;;;;;;5107382;28;20225;-63
2021/01/11 10:23:53;;;;;;;31.88;8.63;;;9.30;38.40;;;;;;5099815;28;19963;-64
2021/01/11 10:26:20;;;;;;;;;;;9.30;38.10;;;;;;5104262;28;20068;-64
2021/01/11 10:28:48;;;;;;;34.72;9.70;;;9.20;38.00;;;;;;5085119;28;19963;-64
2021/01/11 10:31:16;;;;;;;32.88;9.82;;;9.20;38.00;;;;;;5102906;28;20108;-66
2021/01/11 10:33:45;;;;;;;33.53;10.65;;;9.40;38.20;;;;;;5103730;28;20104;-63
2021/01/11 10:36:12;;;;;;;30.50;11.30;;;9.30;37.30;;;;;;5093159;28;20071;-63
2021/01/11 10:38:40;;;;;;;37.42;12.10;;;9.30;37.10;;;;;;5106781;28;20072;-63
2021/01/11 10:41:07;;;;;;;24.63;11.30;;;9.30;37.00;;;;;;5107007;28;20632;-64
2021/01/11 10:43:33;;;;;;;33.33;11.18;;;9.30;36.90;;;;;;5107277;28;20079;-63
2021/01/11 10:46:01;;;;;;;;;;;9.30;37.10;;;;;;5105290;28;20513;-63
2021/01/11 10:48:28;;;;;;;31.85;9.63;;;9.20;37.20;;;;;;5103361;28;20347;-62
2021/01/11 10:50:55;;;;;;;22.67;9.40;;;9.30;37.30;;;;;;5105972;28;20155;-62
2021/01/11 10:53:21;;;;;;;;;;;9.30;37.00;;;;;;5103393;28;20440;-64
2021/01/11 10:55:48;;;;;;;29.42;8.40;;;9.20;36.60;;;;;;5086733;28;20043;-64
2021/01/11 10:58:14;;;;;;;;;;;9.20;36.80;;;;;;5104948;28;20075;-63
2021/01/11 11:00:40;;;;;;;24.02;9.63;;;9.30;37.30;;;;;;5101375;28;20316;-64
2021/01/11 11:03:08;;;;;;;23.85;8.65;;;9.30;37.30;;;;;;5106453;28;20529;-64
2021/01/11 11:05:34;;;;;;;21.17;8.35;;;9.40;37.20;;;;;;5105414;28;20072;-62
2021/01/11 11:08:01;;;;;;;23.52;8.48;;;9.40;36.90;;;;;;5105496;28;20732;-63
2021/01/11 11:10:27;;;;;;;;;;;9.30;37.10;;;;;;5104272;28;20597;-63
2021/01/11 11:12:54;;;;;;;26.02;8.93;;;9.30;36.50;;;;;;5093591;28;19960;-63
2021/01/11 11:15:21;;;;;;;21.30;8.20;;;9.30;36.70;;;;;;5102824;28;20069;-61
2021/01/11 11:17:47;;;;;;;27.05;9.05;;;9.40;38.00;;;;;;5082120;28;20081;-63
2021/01/11 11:20:14;;;;;;;;;;;9.40;37.80;;;;;;5109565;28;20148;-63
2021/01/11 11:22:41;;;;;;;25.17;8.75;;;9.40;37.10;;;;;;5085866;28;19987;-63
2021/01/11 11:25:08;;;;;;;25.15;7.88;;;9.40;37.00;;;;;;5085089;28;20080;-63
2021/01/11 11:27:36;;;;;;;22.73;8.63;;;9.40;36.80;;;;;;5100722;28;20072;-63
2021/01/11 11:30:09;;;;;;;26.65;7.90;;;9.50;36.70;;;;;;5105553;28;20072;-63
2021/01/11 11:32:35;;;;;;;22.02;8.13;;;9.40;37.20;;;;;;5101202;28;20072;-64
2021/01/11 11:35:05;;;;;;;;;;;9.50;37.70;;;;;;5103505;28;20077;-63
2021/01/11 11:37:33;;;;;;;23.85;8.23;;;9.50;37.10;;;;;;5101219;28;19957;-63
2021/01/11 11:40:00;;;;;;;20.00;7.82;;;9.50;37.40;;;;;;5106231;28;20106;-63
2021/01/11 11:42:32;;;;;;;20.02;8.35;;;9.50;37.50;;;;;;5099640;28;20107;-63
2021/01/11 11:44:59;;;;;;;20.95;7.22;;;9.60;37.70;;;;;;5109235;28;20064;-63
2021/01/11 11:47:26;;;;;;;23.42;7.28;;;9.50;38.30;;;;;;5102723;28;20060;-64
2021/01/11 11:49:54;;;;;;;16.67;6.22;;;9.50;38.00;;;;;;5091096;28;20108;-64
2021/01/11 11:52:20;;;;;;;10.82;4.97;;;9.60;37.70;;;;;;5105711;28;20114;-64
2021/01/11 11:54:46;;;;;;;;;;;9.50;37.10;;;;;;5106443;28;20427;-64
2021/01/11 11:57:13;;;;;;;11.65;3.70;;;9.50;36.60;;;;;;5092547;28;19964;-63
2021/01/11 11:59:39;;;;;;;;;;;9.40;36.60;;;;;;5091071;28;20447;-64
2021/01/11 12:02:11;;;;;;;10.70;3.35;;;9.50;36.70;;;;;;5099364;28;20010;-63
2021/01/11 12:04:37;;;;;;;10.50;3.25;;;9.50;36.80;;;;;;5090536;28;20119;-64
2021/01/11 12:07:03;;;;;;;;;;;9.60;36.80;;;;;;5094816;28;20455;-63
2021/01/11 12:09:30;;;;;;;11.30;4.40;;;9.50;37.10;;;;;;5085605;28;20002;-63
2021/01/11 12:11:56;;;;;;;;;;;9.60;37.40;;;;;;5098763;28;21547;-63
2021/01/11 12:14:23;;;;;;;16.17;5.35;;;9.60;37.50;;;;;;5108582;28;20009;-63
2021/01/11 12:16:50;;;;;;;19.88;6.25;;;9.60;37.70;;;;;;5106475;27;20104;-64
2021/01/11 12:19:18;;;;;;;32.90;6.78;;;9.60;37.20;;;;;;5109376;28;20064;-63
2021/01/11 12:21:45;;;;;;;27.75;6.80;;;9.60;37.20;;;;;;5089249;28;20108;-63
2021/01/11 12:24:12;;;;;;;19.20;6.20;;;9.70;37.00;;;;;;5096185;28;20129;-62
2021/01/11 12:26:45;;;;;;;16.73;5.45;;;9.70;37.00;;;;;;5093580;28;20145;-64
2021/01/11 12:29:13;;;;;;;15.65;4.97;;;9.60;37.00;;;;;;5104372;27;20072;-62
2021/01/11 12:31:41;;;;;;;24.40;5.60;;;9.60;37.60;;;;;;5108571;28;20072;-64
2021/01/11 12:34:09;;;;;;;16.33;5.18;;;9.50;37.20;;;;;;5107170;27;20108;-62
2021/01/11 12:36:38;;;;;;;17.73;5.07;;;9.40;37.30;;;;;;5104963;28;20127;-62
2021/01/11 12:39:09;;;;;;;20.95;4.63;;;9.40;37.60;;;;;;5092963;28;20133;-64
2021/01/11 12:41:37;;;;;;;14.10;4.78;;;9.40;37.60;;;;;;5108084;28;20104;-64
2021/01/11 12:44:08;;;;;;;14.43;4.63;;;9.40;37.60;;;;;;5104928;28;20072;-65
2021/01/11 12:46:35;;;;;;;14.77;4.57;;;9.30;38.30;;;;;;5090973;28;20072;-63
2021/01/11 12:49:02;;;;;;;19.40;4.13;;;9.30;37.80;;;;;;5091466;28;20129;-64
2021/01/11 12:51:28;;;;;;;16.42;4.10;;;9.30;37.50;;;;;;5110352;28;20075;-62
2021/01/11 12:53:55;;;;;;;13.05;4.03;;;9.30;37.50;;;;;;5105913;28;20533;-63
2021/01/11 12:56:24;;;;;;;14.82;4.05;;;9.30;37.70;;;;;;5107049;27;20092;-64
2021/01/11 12:58:52;;;;;;;15.63;4.00;;;9.20;37.90;;;;;;5104218;28;20448;-62
2021/01/11 13:01:25;;;;;;;18.10;4.30;;;9.20;38.00;;;;;;5106759;27;20096;-63
2021/01/11 13:03:55;;;;;;;13.82;3.95;;;9.20;38.10;;;;;;5105676;28;20084;-64